sensor_id;sensor_type;location;lat;lon;timestamp;pressure;altitude;pressure_sealevel;temperature;humidity
63552;BME280;49698;48.072;7.800;2023-02-15T00:01:57;100803.41;;;-0.36;100.00
63552;BME280;49698;48.072;7.800;2023-02-15T00:04:25;100811.53;;;-0.38;100.00
63552;BME280;49698;48.072;7.800;2023-02-15T00:07:15;100811.53;;;-0.38;100.00
63552;BME280;49698;48.072;7.800;2023-02-15T00:09:45;100818.44;;;-0.37;100.00
63552;BME280;49698;48.072;7.800;2023-02-15T00:12:14;100814.81;;;-0.36;100.00
63552;BME280;49698;48.072;7.800;2023-02-15T00:14:42;100806.25;;;-0.38;100.00
63552;BME280;49698;48.072;7.800;2023-02-15T00:17:10;100797.84;;;-0.41;100.00
63552;BME280;49698;48.072;7.800;2023-02-15T00:19:38;100811.41;;;-0.44;100.00
63552;BME280;49698;48.072;7.800;2023-02-15T00:22:06;100800.22;;;-0.46;100.00
63552;BME280;49698;48.072;7.800;2023-02-15T00:24:35;100790.53;;;-0.54;100.00
63552;BME280;49698;48.072;7.800;2023-02-15T00:27:03;100792.84;;;-0.59;100.00
63552;BME280;49698;48.072;7.800;2023-02-15T00:29:31;100803.41;;;-0.59;100.00
63552;BME280;49698;48.072;7.800;2023-02-15T00:31:59;100802.25;;;-0.57;100.00
63552;BME280;49698;48.072;7.800;2023-02-15T00:34:28;100799.28;;;-0.54;100.00
63552;BME280;49698;48.072;7.800;2023-02-15T00:36:56;100801.09;;;-0.54;100.00
63552;BME280;49698;48.072;7.800;2023-02-15T00:39:24;100799.44;;;-0.55;100.00
63552;BME280;49698;48.072;7.800;2023-02-15T00:41:55;100811.66;;;-0.54;100.00
63552;BME280;49698;48.072;7.800;2023-02-15T00:44:23;100794.16;;;-0.55;100.00
63552;BME280;49698;48.072;7.800;2023-02-15T00:46:50;100797.44;;;-0.53;100.00
63552;BME280;49698;48.072;7.800;2023-02-15T00:49:19;100796.63;;;-0.54;100.00
63552;BME280;49698;48.072;7.800;2023-02-15T00:51:47;100791.16;;;-0.52;100.00
63552;BME280;49698;48.072;7.800;2023-02-15T00:54:15;100790.16;;;-0.51;100.00
63552;BME280;49698;48.072;7.800;2023-02-15T00:56:43;100778.78;;;-0.52;100.00
63552;BME280;49698;48.072;7.800;2023-02-15T00:59:13;100781.41;;;-0.52;100.00
63552;BME280;49698;48.072;7.800;2023-02-15T01:01:41;100781.25;;;-0.50;100.00
63552;BME280;49698;48.072;7.800;2023-02-15T01:04:09;100779.25;;;-0.48;100.00
63552;BME280;49698;48.072;7.800;2023-02-15T01:06:37;100784.88;;;-0.51;100.00
63552;BME280;49698;48.072;7.800;2023-02-15T01:09:04;100783.22;;;-0.52;100.00
63552;BME280;49698;48.072;7.800;2023-02-15T01:11:33;100788.88;;;-0.55;100.00
63552;BME280;49698;48.072;7.800;2023-02-15T01:14:00;100784.78;;;-0.58;100.00
63552;BME280;49698;48.072;7.800;2023-02-15T01:16:31;100780.94;;;-0.55;100.00
63552;BME280;49698;48.072;7.800;2023-02-15T01:18:59;100788.50;;;-0.52;100.00
63552;BME280;49698;48.072;7.800;2023-02-15T01:21:30;100790.16;;;-0.51;100.00
63552;BME280;49698;48.072;7.800;2023-02-15T01:24:02;100789.88;;;-0.56;100.00
63552;BME280;49698;48.072;7.800;2023-02-15T01:26:30;100789.59;;;-0.61;100.00
63552;BME280;49698;48.072;7.800;2023-02-15T01:28:58;100794.38;;;-0.65;100.00
63552;BME280;49698;48.072;7.800;2023-02-15T01:31:26;100793.91;;;-0.68;100.00
63552;BME280;49698;48.072;7.800;2023-02-15T01:33:55;100795.56;;;-0.67;100.00
63552;BME280;49698;48.072;7.800;2023-02-15T01:36:23;100792.72;;;-0.66;100.00
63552;BME280;49698;48.072;7.800;2023-02-15T01:38:51;100795.38;;;-0.66;100.00
63552;BME280;49698;48.072;7.800;2023-02-15T01:41:19;100794.38;;;-0.65;100.00
63552;BME280;49698;48.072;7.800;2023-02-15T01:43:55;100789.94;;;-0.64;100.00
63552;BME280;49698;48.072;7.800;2023-02-15T01:46:27;100789.97;;;-0.72;100.00
63552;BME280;49698;48.072;7.800;2023-02-15T01:49:02;100789.16;;;-0.73;100.00
63552;BME280;49698;48.072;7.800;2023-02-15T01:51:33;100792.63;;;-0.72;100.00
63552;BME280;49698;48.072;7.800;2023-02-15T01:54:05;100781.25;;;-0.73;100.00
63552;BME280;49698;48.072;7.800;2023-02-15T01:56:38;100784.38;;;-0.78;100.00
63552;BME280;49698;48.072;7.800;2023-02-15T01:59:10;100776.19;;;-0.83;100.00
63552;BME280;49698;48.072;7.800;2023-02-15T02:01:40;100771.91;;;-0.84;100.00
63552;BME280;49698;48.072;7.800;2023-02-15T02:04:15;100783.75;;;-0.80;100.00
63552;BME280;49698;48.072;7.800;2023-02-15T02:06:46;100783.22;;;-0.75;100.00
63552;BME280;49698;48.072;7.800;2023-02-15T02:09:14;100781.25;;;-0.73;100.00
63552;BME280;49698;48.072;7.800;2023-02-15T02:11:44;100774.13;;;-0.72;100.00
63552;BME280;49698;48.072;7.800;2023-02-15T02:14:14;100782.88;;;-0.72;100.00
63552;BME280;49698;48.072;7.800;2023-02-15T02:16:47;100786.34;;;-0.71;100.00
63552;BME280;49698;48.072;7.800;2023-02-15T02:26:06;100762.34;;;-0.85;100.00
63552;BME280;49698;48.072;7.800;2023-02-15T02:29:07;100764.66;;;-0.90;100.00
63552;BME280;49698;48.072;7.800;2023-02-15T02:31:52;100757.75;;;-0.91;100.00
63552;BME280;49698;48.072;7.800;2023-02-15T02:34:27;100763.38;;;-0.94;100.00
63552;BME280;49698;48.072;7.800;2023-02-15T02:37:00;100757.75;;;-0.91;100.00
63552;BME280;49698;48.072;7.800;2023-02-15T02:39:36;100756.94;;;-0.91;100.00
63552;BME280;49698;48.072;7.800;2023-02-15T02:42:13;100751.47;;;-0.90;100.00
63552;BME280;49698;48.072;7.800;2023-02-15T02:44:48;100760.69;;;-0.86;100.00
63552;BME280;49698;48.072;7.800;2023-02-15T02:47:21;100763.16;;;-0.84;100.00
63552;BME280;49698;48.072;7.800;2023-02-15T02:49:58;100752.41;;;-0.83;100.00
63552;BME280;49698;48.072;7.800;2023-02-15T02:52:40;100738.59;;;-0.85;100.00
63552;BME280;49698;48.072;7.800;2023-02-15T02:55:12;100743.88;;;-0.85;100.00
63552;BME280;49698;48.072;7.800;2023-02-15T02:57:47;100743.22;;;-0.87;100.00
63552;BME280;49698;48.072;7.800;2023-02-15T03:00:20;100742.38;;;-0.87;100.00
63552;BME280;49698;48.072;7.800;2023-02-15T03:02:52;100752.47;;;-0.91;100.00
63552;BME280;49698;48.072;7.800;2023-02-15T03:05:24;100755.78;;;-0.89;100.00
63552;BME280;49698;48.072;7.800;2023-02-15T03:07:54;100759.84;;;-0.86;100.00
63552;BME280;49698;48.072;7.800;2023-02-15T03:10:24;100754.59;;;-0.86;100.00
63552;BME280;49698;48.072;7.800;2023-02-15T03:12:52;100745.84;;;-0.87;100.00
63552;BME280;49698;48.072;7.800;2023-02-15T03:15:24;100734.19;;;-0.92;100.00
63552;BME280;49698;48.072;7.800;2023-02-15T03:17:56;100744.25;;;-0.96;100.00
63552;BME280;49698;48.072;7.800;2023-02-15T03:20:29;100745.44;;;-0.99;100.00
63552;BME280;49698;48.072;7.800;2023-02-15T03:23:03;100742.78;;;-0.99;100.00
63552;BME280;49698;48.072;7.800;2023-02-15T03:25:33;100746.59;;;-1.01;100.00
63552;BME280;49698;48.072;7.800;2023-02-15T03:28:03;100742.03;;;-1.07;100.00
63552;BME280;49698;48.072;7.800;2023-02-15T03:30:34;100751.63;;;-1.14;100.00
63552;BME280;49698;48.072;7.800;2023-02-15T03:33:04;100743.03;;;-1.16;100.00
63552;BME280;49698;48.072;7.800;2023-02-15T03:35:40;100747.69;;;-1.18;100.00
63552;BME280;49698;48.072;7.800;2023-02-15T03:38:13;100751.81;;;-1.16;100.00
63552;BME280;49698;48.072;7.800;2023-02-15T03:40:45;100750.81;;;-1.15;100.00
63552;BME280;49698;48.072;7.800;2023-02-15T03:43:39;100761.84;;;-1.11;100.00
63552;BME280;49698;48.072;7.800;2023-02-15T03:46:13;100754.25;;;-1.14;100.00
63552;BME280;49698;48.072;7.800;2023-02-15T03:48:46;100760.53;;;-1.15;100.00
63552;BME280;49698;48.072;7.800;2023-02-15T03:51:18;100762.19;;;-1.14;100.00
63552;BME280;49698;48.072;7.800;2023-02-15T03:54:05;100763.81;;;-1.13;100.00
63552;BME280;49698;48.072;7.800;2023-02-15T03:56:35;100756.91;;;-1.14;100.00
63552;BME280;49698;48.072;7.800;2023-02-15T03:59:04;100751.28;;;-1.11;100.00
63552;BME280;49698;48.072;7.800;2023-02-15T04:01:57;100762.47;;;-1.09;100.00
63552;BME280;49698;48.072;7.800;2023-02-15T04:04:35;100762.19;;;-1.14;100.00
63552;BME280;49698;48.072;7.800;2023-02-15T04:07:07;100755.94;;;-1.21;100.00
63552;BME280;49698;48.072;7.800;2023-02-15T04:09:35;100756.13;;;-1.23;100.00
63552;BME280;49698;48.072;7.800;2023-02-15T04:12:35;100754.31;;;-1.23;100.00
63552;BME280;49698;48.072;7.800;2023-02-15T04:15:03;100753.31;;;-1.21;100.00
63552;BME280;49698;48.072;7.800;2023-02-15T04:17:49;100746.53;;;-1.24;100.00
63552;BME280;49698;48.072;7.800;2023-02-15T04:20:17;100754.63;;;-1.26;100.00
63552;BME280;49698;48.072;7.800;2023-02-15T04:23:06;100751.00;;;-1.25;100.00
63552;BME280;49698;48.072;7.800;2023-02-15T04:25:52;100750.03;;;-1.24;100.00
63552;BME280;49698;48.072;7.800;2023-02-15T04:28:19;100748.53;;;-1.26;100.00
63552;BME280;49698;48.072;7.800;2023-02-15T04:30:47;100751.81;;;-1.24;100.00
63552;BME280;49698;48.072;7.800;2023-02-15T04:33:15;100750.53;;;-1.28;100.00
63552;BME280;49698;48.072;7.800;2023-02-15T04:35:43;100740.34;;;-1.31;100.00
63552;BME280;49698;48.072;7.800;2023-02-15T04:38:14;100748.75;;;-1.36;100.00
63552;BME280;49698;48.072;7.800;2023-02-15T04:40:42;100746.63;;;-1.40;100.00
63552;BME280;49698;48.072;7.800;2023-02-15T04:43:09;100745.81;;;-1.41;100.00
63552;BME280;49698;48.072;7.800;2023-02-15T04:45:38;100747.44;;;-1.40;100.00
63552;BME280;49698;48.072;7.800;2023-02-15T04:48:06;100742.16;;;-1.40;100.00
63552;BME280;49698;48.072;7.800;2023-02-15T04:50:34;100738.56;;;-1.39;100.00
63552;BME280;49698;48.072;7.800;2023-02-15T04:53:02;100739.38;;;-1.38;100.00
63552;BME280;49698;48.072;7.800;2023-02-15T04:55:31;100742.00;;;-1.38;100.00
63552;BME280;49698;48.072;7.800;2023-02-15T04:57:59;100741.84;;;-1.37;100.00
63552;BME280;49698;48.072;7.800;2023-02-15T05:00:27;100733.59;;;-1.34;100.00
63552;BME280;49698;48.072;7.800;2023-02-15T05:02:55;100741.16;;;-1.31;100.00
63552;BME280;49698;48.072;7.800;2023-02-15T05:05:23;100741.97;;;-1.30;100.00
63552;BME280;49698;48.072;7.800;2023-02-15T05:07:51;100742.78;;;-1.30;100.00
63552;BME280;49698;48.072;7.800;2023-02-15T05:10:19;100736.69;;;-1.30;100.00
63552;BME280;49698;48.072;7.800;2023-02-15T05:12:48;100735.22;;;-1.33;100.00
63552;BME280;49698;48.072;7.800;2023-02-15T05:15:17;100739.84;;;-1.35;100.00
63552;BME280;49698;48.072;7.800;2023-02-15T05:17:44;100739.19;;;-1.37;100.00
63552;BME280;49698;48.072;7.800;2023-02-15T05:20:12;100743.66;;;-1.37;100.00
63552;BME280;49698;48.072;7.800;2023-02-15T05:22:40;100736.56;;;-1.37;100.00
63552;BME280;49698;48.072;7.800;2023-02-15T05:25:09;100747.09;;;-1.37;100.00
63552;BME280;49698;48.072;7.800;2023-02-15T05:28:10;100736.91;;;-1.40;100.00
63552;BME280;49698;48.072;7.800;2023-02-15T05:30:48;100743.00;;;-1.39;100.00
63552;BME280;49698;48.072;7.800;2023-02-15T05:33:16;100736.91;;;-1.40;100.00
63552;BME280;49698;48.072;7.800;2023-02-15T05:35:44;100743.84;;;-1.39;100.00
63552;BME280;49698;48.072;7.800;2023-02-15T05:38:12;100744.31;;;-1.35;100.00
63552;BME280;49698;48.072;7.800;2023-02-15T05:40:40;100739.84;;;-1.35;100.00
63552;BME280;49698;48.072;7.800;2023-02-15T05:43:08;100738.84;;;-1.34;100.00
63552;BME280;49698;48.072;7.800;2023-02-15T05:45:37;100744.44;;;-1.29;100.00
63552;BME280;49698;48.072;7.800;2023-02-15T05:48:05;100751.03;;;-1.33;100.00
63552;BME280;49698;48.072;7.800;2023-02-15T05:50:33;100753.34;;;-1.30;100.00
63552;BME280;49698;48.072;7.800;2023-02-15T05:53:01;100756.66;;;-1.28;100.00
63552;BME280;49698;48.072;7.800;2023-02-15T05:55:29;100754.47;;;-1.24;100.00
63552;BME280;49698;48.072;7.800;2023-02-15T05:57:57;100756.59;;;-1.19;100.00
63552;BME280;49698;48.072;7.800;2023-02-15T06:00:25;100757.22;;;-1.17;100.00
63552;BME280;49698;48.072;7.800;2023-02-15T06:02:54;100755.41;;;-1.17;100.00
63552;BME280;49698;48.072;7.800;2023-02-15T06:05:22;100759.06;;;-1.18;100.00
63552;BME280;49698;48.072;7.800;2023-02-15T06:07:50;100758.56;;;-1.21;100.00
63552;BME280;49698;48.072;7.800;2023-02-15T06:10:18;100757.75;;;-1.22;100.00
63552;BME280;49698;48.072;7.800;2023-02-15T06:12:46;100761.56;;;-1.25;100.00
63552;BME280;49698;48.072;7.800;2023-02-15T06:15:14;100757.09;;;-1.24;100.00
63552;BME280;49698;48.072;7.800;2023-02-15T06:17:42;100761.56;;;-1.25;100.00
63552;BME280;49698;48.072;7.800;2023-02-15T06:20:12;100763.84;;;-1.21;100.00
63552;BME280;49698;48.072;7.800;2023-02-15T06:22:40;100754.31;;;-1.23;100.00
63552;BME280;49698;48.072;7.800;2023-02-15T06:25:08;100751.00;;;-1.25;100.00
63552;BME280;49698;48.072;7.800;2023-02-15T06:27:40;100766.81;;;-1.25;100.00
63552;BME280;49698;48.072;7.800;2023-02-15T06:30:10;100759.09;;;-1.26;100.00
63552;BME280;49698;48.072;7.800;2023-02-15T06:32:38;100763.22;;;-1.24;100.00
63552;BME280;49698;48.072;7.800;2023-02-15T06:35:07;100765.00;;;-1.24;100.00
63552;BME280;49698;48.072;7.800;2023-02-15T06:37:38;100770.47;;;-1.26;100.00
63552;BME280;49698;48.072;7.800;2023-02-15T06:40:07;100775.13;;;-1.28;100.00
63552;BME280;49698;48.072;7.800;2023-02-15T06:42:35;100765.88;;;-1.32;100.00
63552;BME280;49698;48.072;7.800;2023-02-15T06:45:04;100773.63;;;-1.30;100.00
63552;BME280;49698;48.072;7.800;2023-02-15T06:47:34;100771.81;;;-1.30;100.00
63552;BME280;49698;48.072;7.800;2023-02-15T06:50:02;100770.16;;;-1.31;100.00
63552;BME280;49698;48.072;7.800;2023-02-15T06:52:30;100771.50;;;-1.35;100.00
63552;BME280;49698;48.072;7.800;2023-02-15T06:54:59;100774.31;;;-1.36;100.00
63552;BME280;49698;48.072;7.800;2023-02-15T06:57:27;100775.13;;;-1.36;100.00
63552;BME280;49698;48.072;7.800;2023-02-15T06:59:55;100776.78;;;-1.35;100.00
63552;BME280;49698;48.072;7.800;2023-02-15T07:02:24;100780.75;;;-1.39;100.00
63552;BME280;49698;48.072;7.800;2023-02-15T07:04:52;100777.44;;;-1.41;100.00
63552;BME280;49698;48.072;7.800;2023-02-15T07:07:20;100780.75;;;-1.39;100.00
63552;BME280;49698;48.072;7.800;2023-02-15T07:09:48;100780.75;;;-1.39;100.00
63552;BME280;49698;48.072;7.800;2023-02-15T07:12:17;100786.66;;;-1.37;100.00
63552;BME280;49698;48.072;7.800;2023-02-15T07:15:03;100788.50;;;-1.37;100.00
63552;BME280;49698;48.072;7.800;2023-02-15T07:17:33;100777.94;;;-1.37;100.00
63552;BME280;49698;48.072;7.800;2023-02-15T07:20:03;100778.94;;;-1.38;100.00
63552;BME280;49698;48.072;7.800;2023-02-15T07:22:31;100779.75;;;-1.38;100.00
63552;BME280;49698;48.072;7.800;2023-02-15T07:25:00;100780.44;;;-1.44;100.00
63552;BME280;49698;48.072;7.800;2023-02-15T07:27:30;100779.31;;;-1.50;100.00
63552;BME280;49698;48.072;7.800;2023-02-15T07:29:58;100774.84;;;-1.49;100.00
63552;BME280;49698;48.072;7.800;2023-02-15T07:32:28;100769.25;;;-1.46;100.00
63552;BME280;49698;48.072;7.800;2023-02-15T07:34:57;100770.53;;;-1.42;100.00
63552;BME280;49698;48.072;7.800;2023-02-15T07:37:26;100771.03;;;-1.38;100.00
63552;BME280;49698;48.072;7.800;2023-02-15T07:39:54;100771.50;;;-1.35;100.00
63552;BME280;49698;48.072;7.800;2023-02-15T07:42:21;100768.34;;;-1.30;100.00
63552;BME280;49698;48.072;7.800;2023-02-15T07:44:51;100767.19;;;-1.28;100.00
63552;BME280;49698;48.072;7.800;2023-02-15T07:47:19;100769.31;;;-1.23;100.00
63552;BME280;49698;48.072;7.800;2023-02-15T07:49:47;100762.03;;;-1.21;100.00
63552;BME280;49698;48.072;7.800;2023-02-15T07:52:16;100767.78;;;-1.17;100.00
63552;BME280;49698;48.072;7.800;2023-02-15T07:54:44;100765.81;;;-1.15;100.00
63552;BME280;49698;48.072;7.800;2023-02-15T07:57:11;100765.63;;;-1.14;100.00
63552;BME280;49698;48.072;7.800;2023-02-15T07:59:39;100764.34;;;-1.18;100.00
63552;BME280;49698;48.072;7.800;2023-02-15T08:02:10;100759.88;;;-1.17;100.00
63552;BME280;49698;48.072;7.800;2023-02-15T08:04:38;100758.06;;;-1.17;100.00
63552;BME280;49698;48.072;7.800;2023-02-15T08:07:06;100756.91;;;-1.14;100.00
63552;BME280;49698;48.072;7.800;2023-02-15T08:09:34;100756.56;;;-1.11;100.00
63552;BME280;49698;48.072;7.800;2023-02-15T08:12:02;100751.91;;;-1.09;100.00
63552;BME280;49698;48.072;7.800;2023-02-15T08:14:30;100752.22;;;-1.04;100.00
63552;BME280;49698;48.072;7.800;2023-02-15T08:16:59;100746.59;;;-1.01;100.00
63552;BME280;49698;48.072;7.800;2023-02-15T08:19:32;100752.19;;;-0.96;100.00
63552;BME280;49698;48.072;7.800;2023-02-15T08:22:02;100756.28;;;-0.93;99.97
63552;BME280;49698;48.072;7.800;2023-02-15T08:24:32;100763.84;;;-0.90;99.98
63552;BME280;49698;48.072;7.800;2023-02-15T08:27:01;100758.69;;;-0.84;99.82
63552;BME280;49698;48.072;7.800;2023-02-15T08:29:33;100761.81;;;-0.80;99.46
63552;BME280;49698;48.072;7.800;2023-02-15T08:32:03;100759.53;;;-0.83;99.23
63552;BME280;49698;48.072;7.800;2023-02-15T08:34:36;100750.59;;;-0.82;99.27
63552;BME280;49698;48.072;7.800;2023-02-15T08:37:04;100750.72;;;-0.76;99.40
63552;BME280;49698;48.072;7.800;2023-02-15T08:39:33;100754.31;;;-0.68;99.25
63552;BME280;49698;48.072;7.800;2023-02-15T08:42:01;100756.22;;;-0.62;98.83
63552;BME280;49698;48.072;7.800;2023-02-15T08:44:29;100752.22;;;-0.58;98.58
63552;BME280;49698;48.072;7.800;2023-02-15T08:46:58;100748.28;;;-0.54;98.30
63552;BME280;49698;48.072;7.800;2023-02-15T08:49:30;100741.97;;;-0.53;98.66
63552;BME280;49698;48.072;7.800;2023-02-15T08:52:00;100742.91;;;-0.46;98.27
63552;BME280;49698;48.072;7.800;2023-02-15T08:54:28;100734.25;;;-0.40;98.36
63552;BME280;49698;48.072;7.800;2023-02-15T08:56:56;100742.50;;;-0.35;98.17
63552;BME280;49698;48.072;7.800;2023-02-15T08:59:24;100725.44;;;-0.32;98.07
63552;BME280;49698;48.072;7.800;2023-02-15T09:01:53;100727.53;;;-0.28;97.90
63552;BME280;49698;48.072;7.800;2023-02-15T09:04:22;100736.13;;;-0.26;98.09
63552;BME280;49698;48.072;7.800;2023-02-15T09:06:50;100731.84;;;-0.27;97.98
63552;BME280;49698;48.072;7.800;2023-02-15T09:09:20;100730.31;;;-0.21;98.00
63552;BME280;49698;48.072;7.800;2023-02-15T09:11:50;100727.41;;;-0.11;97.70
63552;BME280;49698;48.072;7.800;2023-02-15T09:14:24;100717.75;;;-0.04;97.71
63552;BME280;49698;48.072;7.800;2023-02-15T09:16:53;100729.22;;;0.03;97.07
63552;BME280;49698;48.072;7.800;2023-02-15T09:19:24;100729.69;;;0.07;96.77
63552;BME280;49698;48.072;7.800;2023-02-15T09:21:52;100723.34;;;0.16;96.87
63552;BME280;49698;48.072;7.800;2023-02-15T09:24:21;100719.78;;;0.23;96.74
63552;BME280;49698;48.072;7.800;2023-02-15T09:26:49;100715.38;;;0.31;96.15
63552;BME280;49698;48.072;7.800;2023-02-15T09:29:18;100716.66;;;0.35;96.17
63552;BME280;49698;48.072;7.800;2023-02-15T09:31:48;100714.28;;;0.40;95.79
63552;BME280;49698;48.072;7.800;2023-02-15T09:34:18;100722.50;;;0.45;95.71
63552;BME280;49698;48.072;7.800;2023-02-15T09:36:47;100718.09;;;0.52;95.53
63552;BME280;49698;48.072;7.800;2023-02-15T09:39:17;100717.75;;;0.55;95.22
63552;BME280;49698;48.072;7.800;2023-02-15T09:42:20;100711.25;;;0.58;94.81
63552;BME280;49698;48.072;7.800;2023-02-15T09:45:08;100711.63;;;0.55;94.83
63552;BME280;49698;48.072;7.800;2023-02-15T09:51:05;100706.88;;;0.50;95.09
63552;BME280;49698;48.072;7.800;2023-02-15T09:53:46;100714.44;;;0.53;94.73
63552;BME280;49698;48.072;7.800;2023-02-15T09:56:21;100719.75;;;0.53;94.70
63552;BME280;49698;48.072;7.800;2023-02-15T09:58:59;100719.56;;;0.55;94.63
63552;BME280;49698;48.072;7.800;2023-02-15T10:01:37;100723.03;;;0.55;94.46
63552;BME280;49698;48.072;7.800;2023-02-15T10:04:23;100721.00;;;0.57;94.58
63552;BME280;49698;48.072;7.800;2023-02-15T10:07:04;100723.75;;;0.64;94.47
63552;BME280;49698;48.072;7.800;2023-02-15T10:09:51;100727.09;;;0.72;94.47
63552;BME280;49698;48.072;7.800;2023-02-15T10:12:39;100719.50;;;0.84;94.13
63552;BME280;49698;48.072;7.800;2023-02-15T10:15:30;100719.00;;;0.95;93.58
63552;BME280;49698;48.072;7.800;2023-02-15T10:18:24;100716.69;;;1.07;93.03
63552;BME280;49698;48.072;7.800;2023-02-15T10:21:02;100725.53;;;1.14;92.23
63552;BME280;49698;48.072;7.800;2023-02-15T10:23:48;100724.91;;;1.12;92.18
63552;BME280;49698;48.072;7.800;2023-02-15T10:26:21;100721.25;;;1.13;92.20
63552;BME280;49698;48.072;7.800;2023-02-15T10:28:51;100719.03;;;1.17;91.97
63552;BME280;49698;48.072;7.800;2023-02-15T10:31:24;100713.63;;;1.25;91.98
63552;BME280;49698;48.072;7.800;2023-02-15T10:34:12;100708.38;;;1.32;91.71
63552;BME280;49698;48.072;7.800;2023-02-15T10:36:56;100717.19;;;1.39;91.60
63552;BME280;49698;48.072;7.800;2023-02-15T10:39:38;100708.13;;;1.48;91.33
63552;BME280;49698;48.072;7.800;2023-02-15T10:42:15;100711.88;;;1.60;90.91
63552;BME280;49698;48.072;7.800;2023-02-15T10:44:56;100700.56;;;1.73;90.48
63552;BME280;49698;48.072;7.800;2023-02-15T10:47:42;100707.38;;;1.82;90.19
63552;BME280;49698;48.072;7.800;2023-02-15T10:50:46;100701.09;;;1.90;89.48
63552;BME280;49698;48.072;7.800;2023-02-15T10:53:28;100693.97;;;1.90;89.48
63552;BME280;49698;48.072;7.800;2023-02-15T10:56:06;100688.44;;;1.92;89.66
63552;BME280;49698;48.072;7.800;2023-02-15T10:58:59;100688.13;;;2.02;89.72
63552;BME280;49698;48.072;7.800;2023-02-15T11:01:35;100685.31;;;2.10;89.27
63552;BME280;49698;48.072;7.800;2023-02-15T11:07:19;100669.41;;;2.16;88.56
63552;BME280;49698;48.072;7.800;2023-02-15T11:09:51;100666.16;;;2.14;88.60
63552;BME280;49698;48.072;7.800;2023-02-15T11:12:24;100665.75;;;2.17;88.79
63552;BME280;49698;48.072;7.800;2023-02-15T11:14:58;100665.81;;;2.31;88.15
63552;BME280;49698;48.072;7.800;2023-02-15T11:17:33;100655.25;;;2.44;87.57
63552;BME280;49698;48.072;7.800;2023-02-15T11:20:09;100651.59;;;2.45;87.67
63552;BME280;49698;48.072;7.800;2023-02-15T11:22:47;100647.50;;;2.49;87.52
63552;BME280;49698;48.072;7.800;2023-02-15T11:25:19;100637.50;;;2.51;86.93
63552;BME280;49698;48.072;7.800;2023-02-15T11:27:48;100634.47;;;2.54;86.94
63552;BME280;49698;48.072;7.800;2023-02-15T11:30:21;100638.34;;;2.58;86.52
63552;BME280;49698;48.072;7.800;2023-02-15T11:32:51;100630.38;;;2.58;86.84
63552;BME280;49698;48.072;7.800;2023-02-15T11:35:26;100626.13;;;2.64;86.88
63552;BME280;49698;48.072;7.800;2023-02-15T11:38:01;100623.03;;;2.67;86.47
63552;BME280;49698;48.072;7.800;2023-02-15T11:40:35;100621.84;;;2.69;86.74
63552;BME280;49698;48.072;7.800;2023-02-15T11:43:06;100607.16;;;2.80;86.38
63552;BME280;49698;48.072;7.800;2023-02-15T11:45:41;100609.59;;;2.82;85.98
63552;BME280;49698;48.072;7.800;2023-02-15T11:48:12;100606.34;;;2.86;85.79
63552;BME280;49698;48.072;7.800;2023-02-15T11:50:41;100601.03;;;2.93;85.94
63552;BME280;49698;48.072;7.800;2023-02-15T11:53:12;100593.09;;;3.06;85.62
63552;BME280;49698;48.072;7.800;2023-02-15T11:55:43;100593.72;;;3.22;85.03
63552;BME280;49698;48.072;7.800;2023-02-15T11:58:21;100588.38;;;3.28;84.52
63552;BME280;49698;48.072;7.800;2023-02-15T12:00:56;100584.09;;;3.34;84.43
63552;BME280;49698;48.072;7.800;2023-02-15T12:03:39;100579.78;;;3.46;84.26
63552;BME280;49698;48.072;7.800;2023-02-15T12:06:18;100576.25;;;3.65;83.58
63552;BME280;49698;48.072;7.800;2023-02-15T12:08:52;100574.34;;;3.86;83.17
63552;BME280;49698;48.072;7.800;2023-02-15T12:11:26;100575.13;;;4.00;82.43
63552;BME280;49698;48.072;7.800;2023-02-15T12:13:57;100571.22;;;4.02;82.40
63552;BME280;49698;48.072;7.800;2023-02-15T12:16:27;100566.13;;;4.01;82.45
63552;BME280;49698;48.072;7.800;2023-02-15T12:18:57;100563.28;;;3.96;82.47
63552;BME280;49698;48.072;7.800;2023-02-15T12:21:29;100556.94;;;3.90;82.66
63552;BME280;49698;48.072;7.800;2023-02-15T12:24:03;100558.16;;;3.94;82.80
63552;BME280;49698;48.072;7.800;2023-02-15T12:26:34;100548.06;;;4.09;82.44
63552;BME280;49698;48.072;7.800;2023-02-15T12:29:07;100543.38;;;4.43;81.48
63552;BME280;49698;48.072;7.800;2023-02-15T12:31:45;100543.41;;;4.68;80.73
63552;BME280;49698;48.072;7.800;2023-02-15T12:34:19;100538.19;;;4.80;80.22
63552;BME280;49698;48.072;7.800;2023-02-15T12:36:52;100531.16;;;4.92;79.71
63552;BME280;49698;48.072;7.800;2023-02-15T12:39:26;100528.03;;;4.95;79.60
63552;BME280;49698;48.072;7.800;2023-02-15T12:42:01;100531.19;;;5.10;79.25
63552;BME280;49698;48.072;7.800;2023-02-15T12:44:31;100521.75;;;5.33;78.69
63552;BME280;49698;48.072;7.800;2023-02-15T12:47:01;100524.34;;;5.39;78.12
63552;BME280;49698;48.072;7.800;2023-02-15T12:49:31;100527.41;;;5.43;78.08
63552;BME280;49698;48.072;7.800;2023-02-15T12:52:01;100521.25;;;5.43;77.80
63552;BME280;49698;48.072;7.800;2023-02-15T12:54:41;100522.13;;;5.36;78.10
63552;BME280;49698;48.072;7.800;2023-02-15T12:57:25;100519.91;;;5.33;78.19
63552;BME280;49698;48.072;7.800;2023-02-15T12:59:54;100509.03;;;5.35;78.28
63552;BME280;49698;48.072;7.800;2023-02-15T13:02:29;100517.16;;;5.40;77.73
63552;BME280;49698;48.072;7.800;2023-02-15T13:05:05;100507.69;;;5.44;77.92
63552;BME280;49698;48.072;7.800;2023-02-15T13:07:36;100510.97;;;5.46;78.21
63552;BME280;49698;48.072;7.800;2023-02-15T13:10:20;100505.84;;;5.45;78.45
63552;BME280;49698;48.072;7.800;2023-02-15T13:12:49;100508.88;;;5.48;78.15
63552;BME280;49698;48.072;7.800;2023-02-15T13:15:34;100507.53;;;5.57;78.35
63552;BME280;49698;48.072;7.800;2023-02-15T13:18:04;100506.59;;;5.70;77.88
63552;BME280;49698;48.072;7.800;2023-02-15T13:20:34;100503.97;;;5.82;77.64
63552;BME280;49698;48.072;7.800;2023-02-15T13:23:05;100493.06;;;5.83;77.63
63552;BME280;49698;48.072;7.800;2023-02-15T13:25:42;100490.63;;;5.82;77.87
63552;BME280;49698;48.072;7.800;2023-02-15T13:28:19;100492.03;;;5.84;77.91